createdAt,value
2018-04-23T00:01:56.900Z,6.57
2018-04-23T00:04:25.159Z,6.17
2018-04-23T00:06:52.766Z,6.50
2018-04-23T00:09:20.236Z,6.20
2018-04-23T00:11:47.701Z,5.43
2018-04-23T00:14:15.203Z,6.57
2018-04-23T00:16:43.427Z,5.77
2018-04-23T00:19:10.909Z,5.50
2018-04-23T00:21:38.388Z,5.60
2018-04-23T00:24:06.666Z,5.23
2018-04-23T00:26:34.886Z,6.00
2018-04-23T00:29:02.439Z,5.37
2018-04-23T00:31:29.939Z,6.10
2018-04-23T00:33:58.175Z,5.60
2018-04-23T00:36:25.632Z,5.60
2018-04-23T00:38:53.140Z,6.07
2018-04-23T00:41:20.603Z,5.90
2018-04-23T00:43:48.880Z,5.60
2018-04-23T00:46:17.147Z,5.60
2018-04-23T00:48:44.616Z,6.10
2018-04-23T00:51:12.839Z,6.37
2018-04-23T00:53:40.435Z,6.53
2018-04-23T00:56:07.911Z,5.80
2018-04-23T00:58:36.122Z,6.13
2018-04-23T01:01:03.612Z,6.20
2018-04-23T01:03:31.167Z,6.57
2018-04-23T01:05:59.396Z,6.73
2018-04-23T01:08:26.904Z,6.73
2018-04-23T01:13:30.491Z,6.60
2018-04-23T01:15:57.969Z,6.73
2018-04-23T01:18:25.432Z,6.63
2018-04-23T01:20:52.900Z,7.23
2018-04-23T01:23:20.384Z,6.50
2018-04-23T01:25:47.961Z,6.47
2018-04-23T01:28:15.475Z,6.17
2018-04-23T01:30:43.023Z,8.27
2018-04-23T01:33:12.007Z,7.47
2018-04-23T01:35:39.476Z,7.60
2018-04-23T01:38:06.940Z,7.63
2018-04-23T01:40:34.442Z,7.63
2018-04-23T01:43:01.942Z,6.80
2018-04-23T01:45:29.430Z,7.57
2018-04-23T01:47:57.655Z,7.53
2018-04-23T01:50:25.144Z,7.80
2018-04-23T01:52:52.711Z,8.50
2018-04-23T01:55:20.939Z,7.67
2018-04-23T01:57:48.423Z,8.50
2018-04-23T02:00:15.996Z,7.90
2018-04-23T02:02:44.225Z,9.07
2018-04-23T02:05:11.688Z,7.97
2018-04-23T02:07:39.173Z,8.60
2018-04-23T02:10:06.659Z,8.60
2018-04-23T02:12:34.892Z,8.30
2018-04-23T02:15:02.375Z,8.50
2018-04-23T02:17:30.604Z,7.30
2018-04-23T02:19:58.105Z,8.10
2018-04-23T02:22:25.663Z,8.03
2018-04-23T02:24:53.131Z,8.43
2018-04-23T02:27:21.359Z,8.00
2018-04-23T02:29:48.834Z,8.93
2018-04-23T02:32:16.304Z,8.33
2018-04-23T02:34:43.808Z,8.20
2018-04-23T02:37:11.311Z,9.30
2018-04-23T02:39:38.876Z,8.73
2018-04-23T02:42:06.413Z,9.00
2018-04-23T02:44:33.880Z,10.43
2018-04-23T02:47:01.502Z,9.80
2018-04-23T02:49:28.968Z,9.97
2018-04-23T02:51:56.443Z,10.10
2018-04-23T02:54:23.921Z,8.43
2018-04-23T02:56:51.400Z,9.23
2018-04-23T02:59:19.660Z,9.77
2018-04-23T03:01:47.165Z,10.30
2018-04-23T03:04:14.631Z,10.33
2018-04-23T03:06:42.121Z,9.67
2018-04-23T03:09:09.596Z,9.43
2018-04-23T03:11:37.864Z,10.93
2018-04-23T03:14:05.328Z,9.83
2018-04-23T03:16:33.559Z,10.43
2018-04-23T03:19:01.026Z,9.20
2018-04-23T03:21:28.502Z,11.00
2018-04-23T03:23:56.063Z,10.60
2018-04-23T03:26:23.569Z,9.60
2018-04-23T03:28:51.036Z,9.63
2018-04-23T03:31:18.507Z,10.83
2018-04-23T03:33:46.022Z,10.30
2018-04-23T03:36:13.502Z,9.40
2018-04-23T03:38:41.010Z,10.37
2018-04-23T03:41:08.671Z,9.47
2018-04-23T03:43:36.912Z,9.77
2018-04-23T03:46:04.405Z,10.70
2018-04-23T03:48:31.883Z,10.70
2018-04-23T03:51:00.131Z,9.93
2018-04-23T03:53:28.371Z,10.07
2018-04-23T03:55:55.835Z,9.40
2018-04-23T03:58:23.320Z,10.30
2018-04-23T04:00:50.786Z,9.97
2018-04-23T04:03:19.015Z,9.57
2018-04-23T04:05:46.509Z,8.90
2018-04-23T04:08:14.833Z,9.00
2018-04-23T04:10:42.337Z,8.90
2018-04-23T04:13:21.535Z,9.13
2018-04-23T04:16:00.951Z,9.17
2018-04-23T04:18:46.116Z,8.20
2018-04-23T04:21:13.633Z,8.80
2018-04-23T04:23:41.176Z,9.77
2018-04-23T04:26:08.659Z,7.77
2018-04-23T04:28:36.980Z,8.50
2018-04-23T04:31:04.460Z,8.30
2018-04-23T04:33:32.036Z,8.90
2018-04-23T04:35:59.508Z,7.93
2018-04-23T04:38:27.053Z,8.50
2018-04-23T04:40:54.573Z,8.50
2018-04-23T04:43:22.047Z,9.00
2018-04-23T04:45:49.515Z,8.33
2018-04-23T04:48:16.989Z,7.73
2018-04-23T04:50:44.549Z,8.80
2018-04-23T04:53:12.116Z,8.67
2018-04-23T04:55:40.434Z,8.43
2018-04-23T04:58:07.937Z,8.07
2018-04-23T05:00:35.531Z,8.40
2018-04-23T05:03:02.995Z,8.70
2018-04-23T05:05:30.510Z,8.67
2018-04-23T05:07:58.070Z,8.23
2018-04-23T05:10:25.541Z,9.00
2018-04-23T05:12:53.088Z,8.30
2018-04-23T05:15:20.652Z,8.80
2018-04-23T05:17:48.259Z,8.30
2018-04-23T05:20:15.723Z,7.93
2018-04-23T05:22:43.189Z,8.47
2018-04-23T05:25:10.688Z,8.90
2018-04-23T05:27:38.147Z,8.60
2018-04-23T05:30:06.389Z,8.00
2018-04-23T05:32:33.852Z,8.53
2018-04-23T05:35:01.428Z,8.57
2018-04-23T05:37:28.897Z,8.23
2018-04-23T05:39:56.449Z,8.07
2018-04-23T05:42:23.915Z,8.03
2018-04-23T05:44:52.226Z,8.37
2018-04-23T05:47:19.728Z,7.90
2018-04-23T05:49:47.300Z,8.30
2018-04-23T05:52:14.855Z,7.97
2018-04-23T05:54:42.418Z,8.27
2018-04-23T05:57:10.740Z,8.40
2018-04-23T05:59:38.204Z,8.13
2018-04-23T06:02:05.711Z,7.00
2018-04-23T06:04:33.167Z,8.50
2018-04-23T06:07:01.391Z,7.27
2018-04-23T06:09:28.896Z,7.40
2018-04-23T06:11:56.469Z,7.57
2018-04-23T06:14:24.747Z,7.23
2018-04-23T06:16:52.168Z,7.97
2018-04-23T06:19:19.652Z,7.03
2018-04-23T06:21:47.895Z,7.23
2018-04-23T06:24:15.476Z,7.10
2018-04-23T06:26:42.948Z,7.10
2018-04-23T06:29:11.184Z,7.10
2018-04-23T06:31:38.651Z,7.00
2018-04-23T06:34:06.127Z,6.47
2018-04-23T06:36:34.407Z,6.40
2018-04-23T06:39:02.641Z,6.43
2018-04-23T06:41:30.273Z,6.57
2018-04-23T06:43:57.764Z,5.90
2018-04-23T06:46:25.382Z,5.07
2018-04-23T06:48:52.815Z,5.80
2018-04-23T06:51:21.047Z,5.97
2018-04-23T06:53:48.516Z,5.50
2018-04-23T06:56:15.976Z,5.37
2018-04-23T06:58:43.450Z,6.10
2018-04-23T07:01:12.440Z,5.83
2018-04-23T07:03:40.696Z,5.10
2018-04-23T07:06:08.163Z,5.70
2018-04-23T07:08:36.495Z,5.47
2018-04-23T07:11:03.969Z,4.80
2018-04-23T07:13:31.428Z,5.50
2018-04-23T07:15:58.893Z,5.10
2018-04-23T07:18:26.363Z,5.37
2018-04-23T07:20:55.343Z,6.40
2018-04-23T07:23:23.180Z,6.13
2018-04-23T07:25:50.644Z,4.90
2018-04-23T07:28:18.123Z,5.77
2018-04-23T07:30:45.619Z,5.90
2018-04-23T07:33:13.863Z,6.10
2018-04-23T07:35:41.319Z,6.07
2018-04-23T07:38:08.906Z,5.50
2018-04-23T07:40:37.151Z,5.33
2018-04-23T07:43:04.675Z,7.40
2018-04-23T07:45:32.163Z,5.43
2018-04-23T07:47:59.711Z,6.40
2018-04-23T07:50:27.188Z,5.57
2018-04-23T07:52:54.655Z,5.40
2018-04-23T07:55:22.204Z,5.73
2018-04-23T07:57:49.767Z,6.60
2018-04-23T08:00:17.328Z,5.03
2018-04-23T08:02:44.836Z,5.70
2018-04-23T08:05:12.361Z,5.50
2018-04-23T08:07:40.672Z,5.70
2018-04-23T08:10:08.173Z,6.03
2018-04-23T08:12:35.660Z,4.47
2018-04-23T08:15:03.907Z,5.30
2018-04-23T08:17:31.363Z,4.03
2018-04-23T08:19:58.920Z,4.33
2018-04-23T08:22:26.480Z,4.60
2018-04-23T08:24:53.936Z,3.93
2018-04-23T08:27:21.398Z,4.10
2018-04-23T08:29:48.972Z,3.87
2018-04-23T08:32:17.208Z,4.00
2018-04-23T08:34:44.788Z,3.43
2018-04-23T08:37:12.341Z,3.97
2018-04-23T08:39:39.901Z,4.43
2018-04-23T08:42:07.362Z,3.53
2018-04-23T08:44:34.871Z,3.47
2018-04-23T08:47:02.344Z,4.10
2018-04-23T08:49:29.840Z,4.40
2018-04-23T08:51:57.311Z,3.73
2018-04-23T08:54:25.572Z,3.07
2018-04-23T08:56:53.134Z,3.23
2018-04-23T08:59:20.608Z,2.87
2018-04-23T09:01:48.835Z,3.70
2018-04-23T09:04:16.313Z,2.77
2018-04-23T09:06:43.825Z,3.27
2018-04-23T09:09:11.292Z,2.73
2018-04-23T09:11:38.777Z,2.57
2018-04-23T09:14:06.349Z,2.33
2018-04-23T09:16:33.929Z,3.80
2018-04-23T09:19:02.151Z,3.43
2018-04-23T09:21:29.616Z,3.80
2018-04-23T09:23:57.084Z,4.63
2018-04-23T09:26:24.574Z,4.90
2018-04-23T09:28:52.817Z,5.60
2018-04-23T09:31:20.275Z,4.53
2018-04-23T09:33:48.558Z,5.27
2018-04-23T09:36:16.038Z,5.90
2018-04-23T09:38:44.286Z,5.47
2018-04-23T09:41:11.806Z,5.40
2018-04-23T09:43:39.279Z,6.00
2018-04-23T09:46:06.759Z,5.70
2018-04-23T09:48:34.281Z,5.20
2018-04-23T09:51:01.760Z,8.00
2018-04-23T09:53:29.239Z,6.40
2018-04-23T09:55:57.547Z,7.10
2018-04-23T09:58:25.017Z,7.07
2018-04-23T10:00:52.507Z,7.20
2018-04-23T10:03:19.968Z,8.13
2018-04-23T10:05:47.540Z,8.50
2018-04-23T10:08:15.100Z,7.80
2018-04-23T10:10:42.655Z,8.00
2018-04-23T10:13:10.216Z,8.40
2018-04-23T10:15:37.880Z,8.57
2018-04-23T10:18:06.866Z,7.80
2018-04-23T10:20:34.436Z,8.10
2018-04-23T10:23:01.985Z,9.10
2018-04-23T10:25:29.545Z,9.10
2018-04-23T10:27:57.015Z,10.00
2018-04-23T10:30:25.378Z,10.10
2018-04-23T10:32:52.841Z,9.50
2018-04-23T10:35:20.355Z,10.20
2018-04-23T10:37:47.840Z,9.50
2018-04-23T10:40:15.308Z,10.50
2018-04-23T10:42:42.873Z,10.23
2018-04-23T10:45:10.335Z,9.40
2018-04-23T10:47:37.883Z,10.23
2018-04-23T10:50:05.347Z,9.30
2018-04-23T10:52:33.624Z,9.30
2018-04-23T10:55:01.120Z,9.50
2018-04-23T10:57:28.686Z,9.80
2018-04-23T10:59:56.160Z,9.97
2018-04-23T11:02:23.640Z,9.20
2018-04-23T11:04:51.309Z,8.80
2018-04-23T11:07:18.775Z,8.00
2018-04-23T11:09:46.253Z,6.30
2018-04-23T11:12:14.497Z,5.80
2018-04-23T11:14:42.058Z,5.63
2018-04-23T11:17:10.294Z,5.70
2018-04-23T11:19:37.789Z,5.03
2018-04-23T11:22:05.451Z,5.03
2018-04-23T11:24:33.004Z,6.33
2018-04-23T11:27:00.571Z,4.47
2018-04-23T11:29:28.830Z,5.17
2018-04-23T11:31:56.308Z,5.90
2018-04-23T11:34:23.866Z,5.23
2018-04-23T11:36:51.408Z,5.77
2018-04-23T11:39:19.647Z,6.27
2018-04-23T11:41:47.116Z,6.20
2018-04-23T11:44:14.589Z,6.13
2018-04-23T11:46:42.169Z,6.03
2018-04-23T11:49:09.728Z,5.83
2018-04-23T11:51:37.194Z,6.77
2018-04-23T11:54:05.426Z,6.40
2018-04-23T11:56:32.901Z,6.30
2018-04-23T11:59:00.383Z,6.50
2018-04-23T12:01:28.657Z,6.50
2018-04-23T12:03:56.900Z,6.87
2018-04-23T12:06:24.384Z,7.33
2018-04-23T12:08:51.844Z,6.70
2018-04-23T12:11:20.167Z,7.43
2018-04-23T12:13:47.680Z,7.40
2018-04-23T12:16:15.139Z,7.07
2018-04-23T12:18:43.388Z,7.60
2018-04-23T12:21:10.848Z,6.90
2018-04-23T12:23:38.422Z,8.10
2018-04-23T12:26:05.968Z,7.90
2018-04-23T12:28:33.445Z,7.90
2018-04-23T12:31:01.700Z,8.23
2018-04-23T12:33:29.232Z,8.97
2018-04-23T12:35:56.687Z,8.60
2018-04-23T12:38:24.169Z,8.90
2018-04-23T12:40:51.632Z,9.17
2018-04-23T12:43:19.122Z,9.07
2018-04-23T12:45:47.403Z,8.10
2018-04-23T12:48:14.972Z,8.33
2018-04-23T12:50:42.428Z,9.30
2018-04-23T12:53:09.931Z,7.83
2018-04-23T12:55:37.499Z,7.50
2018-04-23T12:58:06.492Z,8.10
2018-04-23T13:00:34.044Z,8.30
2018-04-23T13:03:01.531Z,7.73
2018-04-23T13:05:29.776Z,8.50
2018-04-23T13:07:57.355Z,8.47
2018-04-23T13:10:25.629Z,8.40
2018-04-23T13:12:53.105Z,7.23
2018-04-23T13:15:21.333Z,8.53
2018-04-23T13:17:48.805Z,8.77
2018-04-23T13:20:16.464Z,9.17
2018-04-23T13:22:43.935Z,8.37
2018-04-23T13:25:12.195Z,8.60
2018-04-23T13:27:39.671Z,9.50
2018-04-23T13:30:07.920Z,8.90
2018-04-23T13:32:35.486Z,10.03
2018-04-23T13:35:02.972Z,10.50
2018-04-23T13:37:31.225Z,9.30
2018-04-23T13:39:58.779Z,10.20
2018-04-23T13:45:00.881Z,9.07
2018-04-23T13:47:29.144Z,10.17
2018-04-23T13:49:56.612Z,9.90
2018-04-23T13:52:24.839Z,9.13
2018-04-23T13:54:52.320Z,8.10
2018-04-23T13:57:19.788Z,9.07
2018-04-23T13:59:47.347Z,7.70
2018-04-23T14:02:14.815Z,9.53
2018-04-23T14:04:43.124Z,8.20
2018-04-23T14:07:10.583Z,9.23
2018-04-23T14:09:38.063Z,9.50
2018-04-23T14:12:05.546Z,8.60
2018-04-23T14:14:33.825Z,8.70
2018-04-23T14:17:01.380Z,7.90
2018-04-23T14:19:28.895Z,7.43
2018-04-23T14:21:56.370Z,7.00
2018-04-23T14:24:23.848Z,7.80
2018-04-23T14:26:51.312Z,7.40
2018-04-23T14:29:19.584Z,7.80
2018-04-23T14:31:47.044Z,8.40
2018-04-23T14:34:14.540Z,8.50
2018-04-23T14:36:42.020Z,7.13
2018-04-23T14:39:09.487Z,7.87
2018-04-23T14:41:36.967Z,6.60
2018-04-23T14:44:04.431Z,6.77
2018-04-23T14:46:31.984Z,5.80
2018-04-23T14:48:59.651Z,5.60
2018-04-23T14:51:27.107Z,6.30
2018-04-23T14:53:54.608Z,6.80
2018-04-23T14:56:22.115Z,6.13
2018-04-23T14:58:49.583Z,6.93
2018-04-23T15:01:17.828Z,6.50
2018-04-23T15:03:45.310Z,5.50
2018-04-23T15:06:13.561Z,4.43
2018-04-23T15:08:41.040Z,4.33
2018-04-23T15:11:08.617Z,4.70
2018-04-23T15:13:36.853Z,4.43
2018-04-23T15:16:04.332Z,4.60
2018-04-23T15:18:32.607Z,4.17
2018-04-23T15:21:00.156Z,4.30
2018-04-23T15:23:27.713Z,4.20
2018-04-23T15:25:55.189Z,4.27
2018-04-23T15:28:23.429Z,3.80
2018-04-23T15:30:50.925Z,3.80
2018-04-23T15:33:19.180Z,4.20
2018-04-23T15:35:46.736Z,4.00
2018-04-23T15:38:14.296Z,3.37
2018-04-23T15:40:41.766Z,4.57
2018-04-23T15:43:10.029Z,3.60
2018-04-23T15:45:37.588Z,3.27
2018-04-23T15:48:05.051Z,3.30
2018-04-23T15:50:32.608Z,3.20
2018-04-23T15:53:01.584Z,3.03
2018-04-23T15:55:29.060Z,2.60
2018-04-23T15:57:56.516Z,2.87
2018-04-23T16:00:24.752Z,3.10
2018-04-23T16:02:52.223Z,3.17
2018-04-23T16:05:19.688Z,2.50
2018-04-23T16:07:47.152Z,2.57
2018-04-23T16:10:14.715Z,2.13
2018-04-23T16:12:42.201Z,2.30
2018-04-23T16:15:10.439Z,2.70
2018-04-23T16:17:37.913Z,1.87
2018-04-23T16:20:05.467Z,1.97
2018-04-23T16:22:33.030Z,1.67
2018-04-23T16:25:00.490Z,2.37
2018-04-23T16:27:28.788Z,2.40
2018-04-23T16:29:56.325Z,2.47
2018-04-23T16:32:23.780Z,2.17
2018-04-23T16:34:51.360Z,2.50
2018-04-23T16:37:19.595Z,2.50
2018-04-23T16:39:48.585Z,2.63
2018-04-23T16:42:16.045Z,3.00
2018-04-23T16:44:43.510Z,2.67
2018-04-23T16:47:10.971Z,2.40
2018-04-23T16:49:38.524Z,2.97
2018-04-23T16:52:06.000Z,2.97
2018-04-23T16:54:34.260Z,2.60
2018-04-23T16:57:01.724Z,3.23
2018-04-23T16:59:29.965Z,3.10
2018-04-23T17:01:57.447Z,3.40
2018-04-23T17:04:25.003Z,2.63
2018-04-23T17:06:52.483Z,2.90
2018-04-23T17:09:20.745Z,2.93
2018-04-23T17:11:49.055Z,3.73
2018-04-23T17:14:16.526Z,2.53
2018-04-23T17:16:44.482Z,2.57
2018-04-23T17:19:11.959Z,2.90
2018-04-23T17:21:39.427Z,3.00
2018-04-23T17:24:06.916Z,2.80
2018-04-23T17:26:34.459Z,2.80
2018-04-23T17:29:01.928Z,2.77
2018-04-23T17:31:29.498Z,2.90
2018-04-23T17:33:57.740Z,2.67
2018-04-23T17:36:25.234Z,3.50
2018-04-23T17:38:53.473Z,3.00
2018-04-23T17:41:20.952Z,2.33
2018-04-23T17:43:48.475Z,3.60
2018-04-23T17:46:15.967Z,3.13
2018-04-23T17:48:43.440Z,2.73
2018-04-23T17:51:11.703Z,2.77
2018-04-23T17:53:39.943Z,2.87
2018-04-23T17:56:07.543Z,2.67
2018-04-23T17:58:35.825Z,4.83
2018-04-23T18:01:04.096Z,2.87
2018-04-23T18:03:32.417Z,3.30
2018-04-23T18:05:59.923Z,3.53
2018-04-23T18:08:27.387Z,3.70
2018-04-23T18:10:55.612Z,3.30
2018-04-23T18:13:23.087Z,3.27
2018-04-23T18:15:50.576Z,3.23
2018-04-23T18:18:18.824Z,3.03
2018-04-23T18:20:46.289Z,2.87
2018-04-23T18:23:15.276Z,3.93
2018-04-23T18:25:42.745Z,3.50
2018-04-23T18:28:10.219Z,4.33
2018-04-23T18:30:38.456Z,2.90
2018-04-23T18:33:06.083Z,3.40
2018-04-23T18:35:33.559Z,3.60
2018-04-23T18:38:01.047Z,3.20
2018-04-23T18:40:28.524Z,3.37
2018-04-23T18:42:56.776Z,3.57
2018-04-23T18:45:24.288Z,3.60
2018-04-23T18:47:51.800Z,3.90
2018-04-23T18:50:19.272Z,3.90
2018-04-23T18:52:47.524Z,5.30
2018-04-23T18:55:15.010Z,4.50
2018-04-23T18:57:42.544Z,4.47
2018-04-23T19:00:10.027Z,5.13
2018-04-23T19:02:37.560Z,4.40
2018-04-23T19:05:05.035Z,5.57
2018-04-23T19:07:33.296Z,4.97
2018-04-23T19:10:00.768Z,4.30
2018-04-23T19:12:29.029Z,3.90
2018-04-23T19:14:56.503Z,6.07
2018-04-23T19:17:24.746Z,4.50
2018-04-23T19:19:52.219Z,4.80
2018-04-23T19:22:20.472Z,4.70
2018-04-23T19:24:48.052Z,4.63
2018-04-23T19:27:15.511Z,4.23
2018-04-23T19:29:43.832Z,4.60
2018-04-23T19:32:11.321Z,4.60
2018-04-23T19:34:38.815Z,5.70
2018-04-23T19:37:07.059Z,4.50
2018-04-23T19:39:34.543Z,4.60
2018-04-23T19:42:02.778Z,4.70
2018-04-23T19:44:30.248Z,4.80
2018-04-23T19:46:57.758Z,5.07
2018-04-23T19:49:25.277Z,4.70
2018-04-23T19:51:52.766Z,5.30
2018-04-23T19:54:20.222Z,5.70
2018-04-23T19:56:47.740Z,5.57
2018-04-23T19:59:15.226Z,5.93
2018-04-23T20:01:43.471Z,6.60
2018-04-23T20:04:10.960Z,4.93
2018-04-23T20:06:39.199Z,5.60
2018-04-23T20:09:06.672Z,4.70
2018-04-23T20:11:34.173Z,4.80
2018-04-23T20:14:01.666Z,4.80
2018-04-23T20:16:29.140Z,5.00
2018-04-23T20:18:56.623Z,5.60
2018-04-23T20:21:24.168Z,5.20
2018-04-23T20:23:51.612Z,6.23
2018-04-23T20:26:19.106Z,5.13
2018-04-23T20:28:46.623Z,5.83
2018-04-23T20:31:14.179Z,5.00
2018-04-23T20:33:41.741Z,5.67
2018-04-23T20:36:09.200Z,5.27
2018-04-23T20:38:36.756Z,6.47
2018-04-23T20:41:05.740Z,5.47
2018-04-23T20:43:33.312Z,5.67
2018-04-23T20:46:00.791Z,5.90
2018-04-23T20:48:29.020Z,5.43
2018-04-23T20:50:56.527Z,6.30
2018-04-23T20:53:23.996Z,6.07
2018-04-23T20:55:51.478Z,6.07
2018-04-23T20:58:18.955Z,5.80
2018-04-23T21:00:46.561Z,6.03
2018-04-23T21:03:14.134Z,5.43
2018-04-23T21:05:41.590Z,5.77
2018-04-23T21:08:09.056Z,4.93
2018-04-23T21:10:36.608Z,6.50
2018-04-23T21:13:04.074Z,6.27
2018-04-23T21:15:31.588Z,4.80
2018-04-23T21:17:59.814Z,5.50
2018-04-23T21:20:27.295Z,5.30
2018-04-23T21:22:54.872Z,5.40
2018-04-23T21:25:22.352Z,5.10
2018-04-23T21:27:49.904Z,5.40
2018-04-23T21:30:18.264Z,4.90
2018-04-23T21:32:45.739Z,5.80
2018-04-23T21:35:13.996Z,5.23
2018-04-23T21:37:41.506Z,5.50
2018-04-23T21:40:08.943Z,5.67
2018-04-23T21:42:36.404Z,5.53
2018-04-23T21:45:03.876Z,5.97
2018-04-23T21:47:31.385Z,6.40
2018-04-23T21:49:59.699Z,6.57
2018-04-23T21:52:27.169Z,6.30
2018-04-23T21:54:54.626Z,5.50
2018-04-23T21:57:22.126Z,5.33
2018-04-23T21:59:50.379Z,5.53
2018-04-23T22:02:17.890Z,5.03
2018-04-23T22:04:45.351Z,6.73
2018-04-23T22:07:12.858Z,5.50
2018-04-23T22:09:40.392Z,5.00
2018-04-23T22:12:07.868Z,5.97
2018-04-23T22:14:35.376Z,6.47
2018-04-23T22:17:02.856Z,5.77
2018-04-23T22:19:30.323Z,5.17
2018-04-23T22:21:57.832Z,5.60
2018-04-23T22:24:25.295Z,5.67
2018-04-23T22:26:52.779Z,5.00
2018-04-23T22:29:20.245Z,5.30
2018-04-23T22:31:47.733Z,5.60
2018-04-23T22:34:15.213Z,5.70
2018-04-23T22:36:43.498Z,5.97
2018-04-23T22:39:11.081Z,5.27
2018-04-23T22:41:38.600Z,5.17
2018-04-23T22:44:06.856Z,5.30
2018-04-23T22:46:34.419Z,5.80
2018-04-23T22:49:01.985Z,5.03
2018-04-23T22:51:30.244Z,5.30
2018-04-23T22:53:57.722Z,5.80
2018-04-23T22:56:25.201Z,5.20
2018-04-23T22:58:52.664Z,5.70
2018-04-23T23:01:20.140Z,5.77
2018-04-23T23:03:47.628Z,5.33
2018-04-23T23:06:15.092Z,5.30
2018-04-23T23:08:42.589Z,5.00
2018-04-23T23:11:10.188Z,5.47
2018-04-23T23:13:38.411Z,4.90
2018-04-23T23:16:06.663Z,4.40
2018-04-23T23:18:34.223Z,5.40
2018-04-23T23:21:01.983Z,5.20
2018-04-23T23:23:29.551Z,5.37
2018-04-23T23:25:57.811Z,5.53
2018-04-23T23:28:25.387Z,5.37
2018-04-23T23:30:53.607Z,4.77
2018-04-23T23:33:21.074Z,5.30
2018-04-23T23:35:48.620Z,5.37
2018-04-23T23:38:16.074Z,5.07
2018-04-23T23:40:43.571Z,5.33
2018-04-23T23:43:11.134Z,6.67
2018-04-23T23:45:38.596Z,5.23
2018-04-23T23:48:06.072Z,5.73
2018-04-23T23:50:34.310Z,5.77
2018-04-23T23:53:01.794Z,5.40
2018-04-23T23:55:30.019Z,4.73
2018-04-23T23:57:57.519Z,5.63
